Flight Track Log - Related Links

Times and Time Zones

All times are in EST time to prevent confusion due to time zone crossing. See the ASQ6115 flight status page for this flight to view local times or setup timezone preferences in your user account.


Time Position Orientation Groundspeed Altitude Reporting Facility
EST Latitude Longitude Course Direction KTS MPH feet Rate Location/Type
Sat 06:08:50 PM 42.0000 -87.9333 North 165 190 1,700  Level Chicago TRACON
Sat 06:09:51 PM 42.0333 -87.9833 312° West 196 226 4,400 1,094 Climbing Chicago TRACON
Sat 06:11:51 PM 42.1325 -88.0297 341° North 229 264 5,000 1,418 Climbing Chicago Center
Sat 06:12:00 PM 42.2583 -88.2443 345° North  Level Estimated
Sat 06:12:53 PM 42.2058 -88.0297 360° North 221 254 8,700  Level Chicago Center
Sat 06:13:00 PM 42.3519 -88.2404 North  Level FlightAware Approximate
Sat 06:13:54 PM 42.2706 -88.0278 North 230 265 10,600  Level Chicago Center
Sat 06:14:00 PM 42.4454 -88.2365 North  Level FlightAware Approximate
Sat 06:14:56 PM 42.3533 -88.0244 North 283 326 11,700  Level Chicago Center
Sat 06:15:57 PM 42.4306 -88.0692 337° Northwest 315 362 12,900 1,073 Climbing Chicago Center
Sat 06:16:59 PM 42.4839 -88.1653 307° West 316 364 13,900 488 Climbing Chicago Center
Sat 06:18:00 PM 42.5375 -88.2611 307° West 319 367 13,900  Level Chicago Center
Sat 06:19:02 PM 42.5906 -88.3539 308° West 314 361 13,900  Level Chicago Center
Sat 06:20:03 PM 42.6436 -88.4464 308° West 311 358 13,900 49 Level Chicago Center
Sat 06:21:05 PM 42.6950 -88.5381 307° West 308 354 14,000 49 Climbing Chicago Center
Sat 06:22:06 PM 42.7481 -88.6306 308° West 308 354 14,000  Level Chicago Center
Sat 06:23:08 PM 42.8117 -88.7442 307° West 313 360 14,000 -439 Level Chicago Center
Sat 06:24:09 PM 42.8653 -88.8447 306° West 322 371 13,100 -1,426 Descending Chicago Center
Sat 06:25:10 PM 42.8844 -88.9564 283° West 328 377 11,100 -1,561 Descending Chicago Center
Sat 06:26:12 PM 42.8728 -89.0675 262° West 297 342 9,900 -1,561 Descending Chicago Center
Sat 06:27:13 PM 42.8722 -89.1539 270° West 237 273 7,900 -2,146 Descending Chicago Center
Sat 06:28:15 PM 42.8861 -89.2408 282° West 233 268 5,500 -1,854 Descending Chicago Center
Sat 06:29:16 PM 42.9200 -89.3050 306° West 227 261 4,100 -738 Descending Chicago Center
Sat 06:30:17 PM 42.9744 -89.3344 338° Northwest 218 251 4,000 -585 Descending Chicago Center
Sat 06:31:19 PM 43.0331 -89.3453 352° North 222 255 2,900 -1,024 Descending Chicago Center
Sat 06:32:20 PM 43.0831 -89.3450 360° North 198 228 1,900 -878 Descending Chicago Center
Sat 06:33:22 PM 43.1169 -89.3442 North 161 185 1,100 -774 Descending Chicago Center

Login

Don't have an account? Register now (free) for customized features, flight alerts, and more!